メインページ
METAR-TAF:

METAR-TAF

空港 :

ガズヴィーン, イラン

緯度: 36-15N, 経度: 050-00E, 海抜: 1278m

現時点の気象観測

当レポートは1時間3分前の17:00(UTC)に作成
西の風 10kt
気温 11°C
湿度 94%
気圧 1022 hPa
視程: 6000m
高度4000ftの雲はほとんどない, 積乱雲.
高度9000ftの曇り
小雨

METAR: OIIK 231700Z 27010KT 6000 -RA FEW040CB OVC090 11/10 Q1022

時間: 21:33 (18:03 UTC)


TAF: 見つかりません

4,000以上の空港の気象観測と天気予報(METAR報とTAF報)

利用可能な観測所は地図上に黄色い丸と赤い丸で示す。

丸の上にカーソルを重ねると観測所名を参照できる。

次にクリックすると気象観測と天気予報を参照できる。

マップの切り替え:黒色「×」印の緑ボタンをクリックして拡大、「-」印の緑ボタンをクリックして縮小、緑色の三角印をクリックして隣りの地図に切り替え


METAR-TAF: